createdAt,value
2018-12-27T00:00:40.366Z,946.01
2018-12-27T00:01:40.353Z,946.01
2018-12-27T00:02:40.327Z,946.01
2018-12-27T00:03:40.328Z,945.98
2018-12-27T00:04:40.303Z,945.98
2018-12-27T00:05:40.317Z,945.97
2018-12-27T00:06:40.423Z,945.95
2018-12-27T00:07:40.287Z,945.93
2018-12-27T00:08:40.328Z,945.91
2018-12-27T00:09:40.254Z,945.88
2018-12-27T00:10:40.236Z,945.87
2018-12-27T00:11:40.293Z,945.90
2018-12-27T00:12:40.230Z,945.87
2018-12-27T00:13:40.210Z,945.83
2018-12-27T00:14:40.201Z,945.83
2018-12-27T00:15:40.182Z,945.85
2018-12-27T00:16:40.205Z,945.81
2018-12-27T00:17:40.161Z,945.85
2018-12-27T00:18:40.236Z,945.82
2018-12-27T00:19:40.136Z,945.84
2018-12-27T00:20:40.141Z,945.81
2018-12-27T00:21:40.131Z,945.84
2018-12-27T00:22:40.106Z,945.80
2018-12-27T00:23:40.099Z,945.80
2018-12-27T00:24:40.105Z,945.81
2018-12-27T00:25:40.134Z,945.76
2018-12-27T00:26:40.088Z,945.75
2018-12-27T00:27:40.049Z,945.79
2018-12-27T00:28:40.049Z,945.77
2018-12-27T00:29:40.352Z,945.79
2018-12-27T00:30:40.025Z,945.84
2018-12-27T00:31:40.020Z,945.82
2018-12-27T00:32:40.001Z,945.80
2018-12-27T00:33:39.982Z,945.81
2018-12-27T00:34:39.976Z,945.80
2018-12-27T00:35:39.978Z,945.78
2018-12-27T00:36:39.978Z,945.81
2018-12-27T00:37:39.938Z,945.77
2018-12-27T00:38:39.925Z,945.84
2018-12-27T00:39:39.914Z,945.78
2018-12-27T00:40:39.915Z,945.82
2018-12-27T00:41:39.912Z,945.81
2018-12-27T00:42:39.983Z,945.78
2018-12-27T00:43:40.099Z,945.78
2018-12-27T00:44:39.858Z,945.75
2018-12-27T00:45:39.851Z,945.80
2018-12-27T00:46:39.874Z,945.81
2018-12-27T00:47:39.860Z,945.81
2018-12-27T00:48:39.821Z,945.85
2018-12-27T00:49:39.813Z,945.86
2018-12-27T00:50:39.791Z,945.88
2018-12-27T00:51:39.801Z,945.90
2018-12-27T00:52:39.775Z,945.92
2018-12-27T00:53:39.760Z,945.90
2018-12-27T00:54:39.920Z,945.88
2018-12-27T00:55:39.743Z,945.93
2018-12-27T00:56:39.773Z,945.94
2018-12-27T00:57:39.716Z,945.94
2018-12-27T00:58:39.736Z,945.93
2018-12-27T00:59:39.719Z,945.96
2018-12-27T01:00:39.770Z,945.95
2018-12-27T01:01:39.753Z,945.93
2018-12-27T01:02:39.849Z,945.91
2018-12-27T01:03:39.654Z,945.94
2018-12-27T01:04:39.652Z,945.91
2018-12-27T01:05:39.628Z,945.91
2018-12-27T01:06:39.615Z,945.94
2018-12-27T01:07:39.620Z,945.96
2018-12-27T01:08:39.598Z,945.95
2018-12-27T01:09:39.595Z,945.93
2018-12-27T01:10:39.568Z,945.92
2018-12-27T01:11:39.564Z,945.91
2018-12-27T01:12:39.570Z,945.94
2018-12-27T01:13:39.536Z,945.98
2018-12-27T01:14:39.540Z,945.94
2018-12-27T01:15:39.528Z,945.96
2018-12-27T01:16:39.641Z,945.92
2018-12-27T01:17:39.509Z,945.90
2018-12-27T01:18:39.487Z,945.91
2018-12-27T01:19:39.469Z,945.87
2018-12-27T01:20:39.464Z,945.90
2018-12-27T01:21:39.474Z,945.86
2018-12-27T01:22:39.459Z,945.88
2018-12-27T01:23:39.436Z,945.89
2018-12-27T01:24:39.451Z,945.83
2018-12-27T01:25:39.403Z,945.84
2018-12-27T01:26:39.392Z,945.85
2018-12-27T01:27:39.412Z,945.81
2018-12-27T01:28:39.371Z,945.80
2018-12-27T01:29:39.356Z,945.76
2018-12-27T01:30:39.352Z,945.77
2018-12-27T01:31:39.347Z,945.77
2018-12-27T01:32:39.360Z,945.77
2018-12-27T01:33:39.313Z,945.74
2018-12-27T01:34:39.330Z,945.79
2018-12-27T01:35:39.291Z,945.70
2018-12-27T01:36:39.279Z,945.71
2018-12-27T01:37:39.289Z,945.70
2018-12-27T01:38:39.267Z,945.71
2018-12-27T01:39:39.245Z,945.71
2018-12-27T01:40:39.251Z,945.69
2018-12-27T01:41:39.223Z,945.68
2018-12-27T01:42:39.234Z,945.69
2018-12-27T01:43:39.202Z,945.66
2018-12-27T01:44:39.196Z,945.67
2018-12-27T01:45:39.181Z,945.66
2018-12-27T01:46:39.168Z,945.65
2018-12-27T01:47:39.188Z,945.66
2018-12-27T01:48:39.154Z,945.68
2018-12-27T01:49:39.136Z,945.67
2018-12-27T01:50:39.133Z,945.67
2018-12-27T01:51:39.116Z,945.66
2018-12-27T01:52:39.125Z,945.69
2018-12-27T01:53:39.097Z,945.67
2018-12-27T01:54:39.093Z,945.69
2018-12-27T01:55:39.074Z,945.70
2018-12-27T01:56:39.056Z,945.67
2018-12-27T01:57:39.074Z,945.66
2018-12-27T01:58:39.040Z,945.71
2018-12-27T01:59:39.031Z,945.66
2018-12-27T02:00:39.015Z,945.63
2018-12-27T02:01:39.001Z,945.65
2018-12-27T02:02:39.013Z,945.65
2018-12-27T02:03:38.990Z,945.61
2018-12-27T02:04:38.973Z,945.61
2018-12-27T02:05:38.965Z,945.62
2018-12-27T02:06:38.953Z,945.61
2018-12-27T02:07:38.959Z,945.64
2018-12-27T02:08:38.926Z,945.62
2018-12-27T02:09:38.920Z,945.61
2018-12-27T02:10:38.903Z,945.59
2018-12-27T02:11:38.890Z,945.57
2018-12-27T02:12:38.899Z,945.57
2018-12-27T02:13:38.884Z,945.55
2018-12-27T02:14:38.858Z,945.58
2018-12-27T02:15:38.856Z,945.54
2018-12-27T02:16:38.838Z,945.53
2018-12-27T02:17:38.846Z,945.51
2018-12-27T02:18:38.818Z,945.50
2018-12-27T02:19:38.798Z,945.50
2018-12-27T02:20:38.807Z,945.46
2018-12-27T02:21:38.783Z,945.45
2018-12-27T02:22:38.793Z,945.45
2018-12-27T02:23:38.754Z,945.47
2018-12-27T02:24:38.756Z,945.44
2018-12-27T02:25:38.739Z,945.46
2018-12-27T02:26:38.734Z,945.44
2018-12-27T02:27:38.738Z,945.44
2018-12-27T02:28:38.699Z,945.41
2018-12-27T02:29:38.687Z,945.41
2018-12-27T02:30:38.687Z,945.41
2018-12-27T02:31:38.685Z,945.40
2018-12-27T02:32:38.677Z,945.36
2018-12-27T02:33:38.644Z,945.37
2018-12-27T02:34:38.702Z,945.36
2018-12-27T02:35:38.632Z,945.34
2018-12-27T02:36:38.624Z,945.32
2018-12-27T02:37:38.635Z,945.30
2018-12-27T02:38:38.589Z,945.27
2018-12-27T02:39:40.100Z,945.32
2018-12-27T02:40:38.573Z,945.26
2018-12-27T02:41:38.567Z,945.27
2018-12-27T02:42:38.543Z,945.21
2018-12-27T02:43:38.549Z,945.24
2018-12-27T02:44:38.526Z,945.24
2018-12-27T02:45:38.509Z,945.18
2018-12-27T02:46:38.499Z,945.19
2018-12-27T02:47:38.502Z,945.16
2018-12-27T02:48:38.507Z,945.08
2018-12-27T02:49:38.466Z,945.08
2018-12-27T02:50:38.454Z,945.09
2018-12-27T02:51:38.445Z,945.11
2018-12-27T02:52:38.440Z,945.12
2018-12-27T02:53:38.438Z,945.09
2018-12-27T02:54:38.413Z,945.08
2018-12-27T02:55:38.398Z,945.06
2018-12-27T02:56:38.501Z,945.05
2018-12-27T02:57:38.379Z,945.03
2018-12-27T02:58:38.399Z,945.02
2018-12-27T02:59:38.355Z,944.99
2018-12-27T03:00:38.349Z,944.98
2018-12-27T03:01:38.348Z,944.99
2018-12-27T03:02:38.319Z,944.97
2018-12-27T03:03:43.889Z,944.92
2018-12-27T03:04:39.305Z,944.92
2018-12-27T03:05:38.300Z,944.92
2018-12-27T03:06:38.288Z,944.88
2018-12-27T03:07:38.271Z,944.86
2018-12-27T03:08:38.289Z,944.83
2018-12-27T03:09:38.249Z,944.81
2018-12-27T03:10:38.241Z,944.79
2018-12-27T03:11:38.226Z,944.76
2018-12-27T03:12:38.215Z,944.78
2018-12-27T03:13:38.226Z,944.77
2018-12-27T03:14:38.186Z,944.75
2018-12-27T03:15:38.184Z,944.71
2018-12-27T03:16:38.173Z,944.73
2018-12-27T03:17:38.164Z,944.73
2018-12-27T03:18:38.160Z,944.64
2018-12-27T03:19:38.140Z,944.68
2018-12-27T03:20:38.126Z,944.67
2018-12-27T03:21:38.114Z,944.65
2018-12-27T03:22:38.114Z,944.64
2018-12-27T03:23:38.124Z,944.65
2018-12-27T03:24:38.077Z,944.62
2018-12-27T03:25:38.064Z,944.60
2018-12-27T03:26:38.058Z,944.55
2018-12-27T03:27:38.049Z,944.55
2018-12-27T03:28:38.052Z,944.54
2018-12-27T03:29:38.037Z,944.53
2018-12-27T03:30:38.031Z,944.52
2018-12-27T03:31:38.000Z,944.58
2018-12-27T03:32:37.988Z,944.54
2018-12-27T03:33:37.992Z,944.49
2018-12-27T03:34:37.967Z,944.49
2018-12-27T03:35:37.971Z,944.47
2018-12-27T03:36:37.969Z,944.46
2018-12-27T03:37:37.931Z,944.40
2018-12-27T03:38:37.944Z,944.44
2018-12-27T03:39:37.917Z,944.38
2018-12-27T03:40:37.975Z,944.45
2018-12-27T03:41:37.910Z,944.37
2018-12-27T03:42:37.880Z,944.39
2018-12-27T03:43:37.887Z,944.33
2018-12-27T03:44:37.858Z,944.34
2018-12-27T03:45:37.853Z,944.33
2018-12-27T03:46:37.834Z,944.32
2018-12-27T03:47:37.838Z,944.34
2018-12-27T03:48:37.832Z,944.33
2018-12-27T03:49:37.796Z,944.35
2018-12-27T03:50:37.787Z,944.35
2018-12-27T03:51:37.774Z,944.34
2018-12-27T03:52:37.765Z,944.34
2018-12-27T03:53:37.781Z,944.34
2018-12-27T03:54:37.747Z,944.34
2018-12-27T03:55:37.736Z,944.30
2018-12-27T03:56:37.732Z,944.31
2018-12-27T03:57:37.710Z,944.31
2018-12-27T03:58:37.713Z,944.30
2018-12-27T03:59:37.706Z,944.26
2018-12-27T04:00:37.684Z,944.30
2018-12-27T04:01:37.663Z,944.28
2018-12-27T04:02:37.655Z,944.27
2018-12-27T04:03:37.677Z,944.26
2018-12-27T04:04:37.637Z,944.25
2018-12-27T04:05:37.619Z,944.26
2018-12-27T04:06:37.631Z,944.26
2018-12-27T04:07:37.606Z,944.26
2018-12-27T04:08:37.603Z,944.25
2018-12-27T04:09:37.573Z,944.25
2018-12-27T04:10:37.562Z,944.22
2018-12-27T04:11:37.560Z,944.25
2018-12-27T04:12:37.550Z,944.26
2018-12-27T04:13:37.544Z,944.28
2018-12-27T04:14:37.521Z,944.29
2018-12-27T04:15:37.506Z,944.25
2018-12-27T04:16:37.496Z,944.23
2018-12-27T04:17:37.486Z,944.26
2018-12-27T04:18:37.490Z,944.26
2018-12-27T04:19:37.487Z,944.26
2018-12-27T04:20:37.458Z,944.29
2018-12-27T04:21:37.448Z,944.27
2018-12-27T04:22:37.434Z,944.25
2018-12-27T04:23:37.429Z,944.26
2018-12-27T04:24:37.439Z,944.23
2018-12-27T04:25:37.413Z,944.22
2018-12-27T04:26:37.386Z,944.20
2018-12-27T04:27:37.374Z,944.18
2018-12-27T04:28:37.364Z,944.20
2018-12-27T04:29:37.371Z,944.15
2018-12-27T04:30:37.356Z,944.17
2018-12-27T04:31:37.350Z,944.17
2018-12-27T04:32:37.317Z,944.20
2018-12-27T04:33:37.314Z,944.17
2018-12-27T04:34:37.315Z,944.19
2018-12-27T04:35:37.285Z,944.19
2018-12-27T04:36:37.292Z,944.16
2018-12-27T04:37:37.261Z,944.15
2018-12-27T04:38:37.257Z,944.16
2018-12-27T04:39:37.259Z,944.16
2018-12-27T04:40:37.236Z,944.15
2018-12-27T04:41:37.228Z,944.16
2018-12-27T04:42:37.227Z,944.16
2018-12-27T04:43:37.196Z,944.19
2018-12-27T04:44:37.234Z,944.20
2018-12-27T04:45:37.173Z,944.16
2018-12-27T04:46:37.171Z,944.14
2018-12-27T04:47:37.156Z,944.14
2018-12-27T04:48:37.162Z,944.15
2018-12-27T04:49:37.127Z,944.14
2018-12-27T04:50:37.143Z,944.11
2018-12-27T04:51:37.112Z,944.12
2018-12-27T04:52:37.095Z,944.11
2018-12-27T04:53:37.089Z,944.09
2018-12-27T04:54:37.218Z,944.10
2018-12-27T04:55:37.095Z,944.10
2018-12-27T04:56:37.050Z,944.09
2018-12-27T04:57:37.054Z,944.14
2018-12-27T04:58:37.034Z,944.12
2018-12-27T04:59:37.040Z,944.12
2018-12-27T05:00:37.046Z,944.15
2018-12-27T05:01:36.995Z,944.14
2018-12-27T05:02:36.982Z,944.15
2018-12-27T05:03:36.972Z,944.08
2018-12-27T05:04:36.966Z,944.16
2018-12-27T05:05:36.980Z,944.11
2018-12-27T05:06:36.938Z,944.13
2018-12-27T05:07:36.935Z,944.11
2018-12-27T05:08:36.934Z,944.13
2018-12-27T05:09:36.933Z,944.14
2018-12-27T05:10:36.929Z,944.14
2018-12-27T05:11:36.883Z,944.19
2018-12-27T05:12:36.870Z,944.14
2018-12-27T05:13:36.864Z,944.11
2018-12-27T05:14:36.869Z,944.17
2018-12-27T05:15:36.870Z,944.17
2018-12-27T05:16:36.840Z,944.21
2018-12-27T05:17:36.832Z,944.15
2018-12-27T05:18:36.806Z,944.15
2018-12-27T05:19:36.794Z,944.16
2018-12-27T05:20:36.792Z,944.19
2018-12-27T05:21:36.792Z,944.17
2018-12-27T05:22:36.769Z,944.16
2018-12-27T05:23:36.751Z,944.18
2018-12-27T05:24:36.737Z,944.20
2018-12-27T05:25:36.730Z,944.17
2018-12-27T05:26:36.745Z,944.18
2018-12-27T05:27:36.707Z,944.15
2018-12-27T05:28:36.705Z,944.16
2018-12-27T05:29:36.682Z,944.16
2018-12-27T05:30:36.681Z,944.13
2018-12-27T05:31:36.678Z,944.18
2018-12-27T05:32:36.669Z,944.15
2018-12-27T05:33:36.644Z,944.13
2018-12-27T05:34:36.625Z,944.12
2018-12-27T05:35:36.618Z,944.12
2018-12-27T05:36:36.619Z,944.09
2018-12-27T05:37:36.592Z,944.12
2018-12-27T05:38:36.598Z,944.15
2018-12-27T05:39:36.584Z,944.14
2018-12-27T05:40:36.558Z,944.20
2018-12-27T05:41:36.565Z,944.19
2018-12-27T05:42:36.536Z,944.21
2018-12-27T05:43:36.528Z,944.15
2018-12-27T05:44:36.528Z,944.19
2018-12-27T05:45:36.515Z,944.19
2018-12-27T05:46:36.523Z,944.17
2018-12-27T05:47:36.486Z,944.21
2018-12-27T05:48:36.469Z,944.21
2018-12-27T05:49:36.466Z,944.18
2018-12-27T05:50:36.459Z,944.19
2018-12-27T05:51:36.457Z,944.20
2018-12-27T05:52:36.425Z,944.18
2018-12-27T05:53:36.414Z,944.15
2018-12-27T05:54:36.409Z,944.16
2018-12-27T05:55:36.405Z,944.19
2018-12-27T05:56:36.431Z,944.16
2018-12-27T05:57:36.373Z,944.19
2018-12-27T05:58:36.359Z,944.21
2018-12-27T05:59:36.347Z,944.15
2018-12-27T06:00:36.335Z,944.19
2018-12-27T06:01:36.325Z,944.18
2018-12-27T06:02:36.338Z,944.18
2018-12-27T06:03:36.301Z,944.20
2018-12-27T06:04:36.299Z,944.15
2018-12-27T06:05:36.279Z,944.17
2018-12-27T06:06:36.268Z,944.16
2018-12-27T06:07:36.277Z,944.09
2018-12-27T06:08:36.263Z,944.11
2018-12-27T06:09:36.242Z,944.14
2018-12-27T06:10:36.222Z,944.12
2018-12-27T06:11:36.212Z,944.12
2018-12-27T06:12:36.231Z,944.17
2018-12-27T06:13:36.195Z,944.15
2018-12-27T06:14:36.199Z,944.16
2018-12-27T06:15:36.168Z,944.13
2018-12-27T06:16:36.157Z,944.14
2018-12-27T06:17:36.164Z,944.15
2018-12-27T06:18:36.142Z,944.15
2018-12-27T06:19:36.127Z,944.15
2018-12-27T06:20:36.141Z,944.14
2018-12-27T06:21:36.104Z,944.16
2018-12-27T06:22:36.109Z,944.16
2018-12-27T06:23:36.088Z,944.20
2018-12-27T06:24:36.068Z,944.18
2018-12-27T06:25:36.069Z,944.18
2018-12-27T06:26:36.079Z,944.16
2018-12-27T06:27:36.076Z,944.11
2018-12-27T06:28:36.023Z,944.20
2018-12-27T06:29:36.018Z,944.17
2018-12-27T06:30:36.002Z,944.13
2018-12-27T06:31:36.007Z,944.17
2018-12-27T06:32:36.014Z,944.16
2018-12-27T06:33:35.986Z,944.16
2018-12-27T06:34:41.327Z,944.19
2018-12-27T06:35:36.957Z,944.19
2018-12-27T06:36:35.940Z,944.19
2018-12-27T06:37:35.922Z,944.18
2018-12-27T06:38:35.930Z,944.20
2018-12-27T06:39:35.913Z,944.22
2018-12-27T06:40:35.891Z,944.24
2018-12-27T06:41:35.881Z,944.22
2018-12-27T06:42:35.869Z,944.20
2018-12-27T06:43:35.884Z,944.23
2018-12-27T06:44:35.845Z,944.20
2018-12-27T06:45:35.846Z,944.23
2018-12-27T06:46:35.823Z,944.23
2018-12-27T06:47:35.811Z,944.20
2018-12-27T06:48:35.816Z,944.24
2018-12-27T06:49:35.789Z,944.22
2018-12-27T06:50:35.783Z,944.21
2018-12-27T06:51:35.784Z,944.22
2018-12-27T06:52:35.763Z,944.26
2018-12-27T06:53:35.764Z,944.28
2018-12-27T06:54:35.741Z,944.29
2018-12-27T06:55:35.725Z,944.26
2018-12-27T06:56:35.712Z,944.27
2018-12-27T06:57:35.709Z,944.30
2018-12-27T06:58:37.933Z,944.26
2018-12-27T06:59:35.684Z,944.25
2018-12-27T07:00:35.685Z,944.27
2018-12-27T07:01:35.662Z,944.27
2018-12-27T07:02:35.647Z,944.33
2018-12-27T07:03:35.674Z,944.29
2018-12-27T07:04:35.621Z,944.32
2018-12-27T07:05:35.622Z,944.34
2018-12-27T07:06:35.602Z,944.35
2018-12-27T07:07:35.588Z,944.36
2018-12-27T07:08:35.594Z,944.37
2018-12-27T07:09:35.572Z,944.37
2018-12-27T07:10:35.554Z,944.36
2018-12-27T07:11:35.552Z,944.40
2018-12-27T07:12:35.538Z,944.37
2018-12-27T07:13:35.538Z,944.38
2018-12-27T07:14:35.517Z,944.39
2018-12-27T07:15:35.509Z,944.42
2018-12-27T07:16:35.494Z,944.39
2018-12-27T07:17:35.488Z,944.40
2018-12-27T07:18:35.499Z,944.38
2018-12-27T07:19:35.475Z,944.41
2018-12-27T07:20:35.444Z,944.38
2018-12-27T07:21:35.445Z,944.40
2018-12-27T07:22:35.421Z,944.39
2018-12-27T07:23:35.463Z,944.43
2018-12-27T07:24:35.405Z,944.45
2018-12-27T07:25:35.386Z,944.41
2018-12-27T07:26:35.382Z,944.47
2018-12-27T07:27:35.365Z,944.47
2018-12-27T07:28:35.363Z,944.48
2018-12-27T07:29:35.377Z,944.52
2018-12-27T07:30:35.339Z,944.47
2018-12-27T07:31:35.323Z,944.51
2018-12-27T07:32:35.317Z,944.53
2018-12-27T07:33:35.298Z,944.51
2018-12-27T07:34:35.305Z,944.51
2018-12-27T07:35:35.286Z,944.53
2018-12-27T07:36:35.271Z,944.53
2018-12-27T07:37:35.263Z,944.50
2018-12-27T07:38:35.255Z,944.53
2018-12-27T07:39:35.262Z,944.51
2018-12-27T07:40:35.224Z,944.50
2018-12-27T07:41:35.958Z,944.50
2018-12-27T07:42:35.207Z,944.50
2018-12-27T07:43:35.189Z,944.54
2018-12-27T07:44:35.203Z,944.53
2018-12-27T07:45:35.165Z,944.50
2018-12-27T07:46:35.154Z,944.49
2018-12-27T07:47:35.142Z,944.49
2018-12-27T07:48:35.140Z,944.50
2018-12-27T07:49:35.139Z,944.49
2018-12-27T07:50:35.119Z,944.46
2018-12-27T07:51:35.105Z,944.44
2018-12-27T07:52:35.088Z,944.46
2018-12-27T07:53:35.076Z,944.46
2018-12-27T07:54:35.087Z,944.44
2018-12-27T07:55:35.055Z,944.41
2018-12-27T07:56:35.050Z,944.40
2018-12-27T07:57:35.035Z,944.46
2018-12-27T07:58:35.025Z,944.41
2018-12-27T07:59:35.029Z,944.46
2018-12-27T08:00:34.999Z,944.46
2018-12-27T08:01:34.986Z,944.43
2018-12-27T08:02:34.984Z,944.43
2018-12-27T08:03:34.988Z,944.44
2018-12-27T08:04:34.985Z,944.41
2018-12-27T08:05:34.945Z,944.42
2018-12-27T08:06:34.931Z,944.39
2018-12-27T08:07:34.941Z,944.42
2018-12-27T08:08:34.912Z,944.41
2018-12-27T08:09:34.932Z,944.39
2018-12-27T08:10:34.893Z,944.41
2018-12-27T08:11:34.884Z,944.41
2018-12-27T08:12:34.867Z,944.41
2018-12-27T08:13:34.867Z,944.39
2018-12-27T08:14:34.863Z,944.43
2018-12-27T08:15:34.837Z,944.39
2018-12-27T08:16:34.828Z,944.38
2018-12-27T08:17:34.815Z,944.40
2018-12-27T08:18:34.802Z,944.40
2018-12-27T08:19:34.803Z,944.39
2018-12-27T08:20:34.781Z,944.39
2018-12-27T08:21:34.765Z,944.41
2018-12-27T08:22:34.763Z,944.39
2018-12-27T08:23:34.742Z,944.39
2018-12-27T08:24:34.764Z,944.40
2018-12-27T08:25:34.718Z,944.43
2018-12-27T08:26:34.708Z,944.40
2018-12-27T08:27:34.701Z,944.41
2018-12-27T08:28:34.688Z,944.42
2018-12-27T08:29:34.698Z,944.41
2018-12-27T08:30:34.680Z,944.37
2018-12-27T08:31:34.653Z,944.40
2018-12-27T08:32:34.642Z,944.36
2018-12-27T08:33:34.640Z,944.43
2018-12-27T08:34:34.626Z,944.42
2018-12-27T08:35:34.643Z,944.41
2018-12-27T08:36:34.596Z,944.43
2018-12-27T08:37:34.593Z,944.43
2018-12-27T08:38:34.582Z,944.43
2018-12-27T08:39:34.563Z,944.42
2018-12-27T08:40:34.597Z,944.42
2018-12-27T08:41:34.550Z,944.42
2018-12-27T08:42:34.540Z,944.44
2018-12-27T08:43:34.536Z,944.40
2018-12-27T08:44:34.508Z,944.42
2018-12-27T08:45:34.520Z,944.41
2018-12-27T08:46:34.495Z,944.37
2018-12-27T08:47:34.481Z,944.37
2018-12-27T08:48:34.474Z,944.35
2018-12-27T08:49:34.453Z,944.36
2018-12-27T08:50:34.474Z,944.40
2018-12-27T08:51:34.430Z,944.36
2018-12-27T08:52:34.418Z,944.41
2018-12-27T08:53:34.408Z,944.41
2018-12-27T08:54:34.413Z,944.38
2018-12-27T08:55:34.411Z,944.41
2018-12-27T08:56:34.379Z,944.37
2018-12-27T08:57:34.364Z,944.36
2018-12-27T08:58:34.359Z,944.34
2018-12-27T08:59:34.342Z,944.31
2018-12-27T09:00:34.354Z,944.32
2018-12-27T09:01:34.319Z,944.35
2018-12-27T09:02:34.313Z,944.32
2018-12-27T09:03:34.304Z,944.36
2018-12-27T09:04:34.285Z,944.36
2018-12-27T09:05:34.292Z,944.32
2018-12-27T09:06:34.279Z,944.33
2018-12-27T09:07:34.251Z,944.34
2018-12-27T09:08:34.254Z,944.35
2018-12-27T09:09:34.233Z,944.33
2018-12-27T09:10:34.241Z,944.34
2018-12-27T09:11:34.214Z,944.34
2018-12-27T09:12:34.306Z,944.31
2018-12-27T09:13:34.197Z,944.35
2018-12-27T09:14:34.186Z,944.32
2018-12-27T09:15:34.192Z,944.32
2018-12-27T09:16:34.158Z,944.27
2018-12-27T09:17:34.143Z,944.29
2018-12-27T09:18:34.147Z,944.29
2018-12-27T09:19:34.121Z,944.32
2018-12-27T09:20:34.114Z,944.34
2018-12-27T09:21:34.120Z,944.31
2018-12-27T09:22:34.087Z,944.28
2018-12-27T09:23:34.082Z,944.30
2018-12-27T09:24:34.070Z,944.27
2018-12-27T09:25:34.050Z,944.31
2018-12-27T09:26:34.062Z,944.26
2018-12-27T09:27:34.030Z,944.26
2018-12-27T09:28:34.025Z,944.30
2018-12-27T09:29:34.090Z,944.24
2018-12-27T09:30:34.008Z,944.27
2018-12-27T09:31:34.005Z,944.30
2018-12-27T09:32:33.972Z,944.28
2018-12-27T09:33:33.972Z,944.26
2018-12-27T09:34:33.950Z,944.30
2018-12-27T09:35:33.953Z,944.26
2018-12-27T09:36:33.966Z,944.24
2018-12-27T09:37:33.921Z,944.22
2018-12-27T09:38:33.914Z,944.22
2018-12-27T09:39:33.899Z,944.20
2018-12-27T09:40:33.897Z,944.20
2018-12-27T09:41:33.898Z,944.21
2018-12-27T09:42:33.921Z,944.18
2018-12-27T09:43:33.850Z,944.20
2018-12-27T09:44:33.877Z,944.19
2018-12-27T09:45:33.829Z,944.15
2018-12-27T09:46:33.833Z,944.14
2018-12-27T09:47:33.806Z,944.12
2018-12-27T09:48:33.806Z,944.12
2018-12-27T09:49:33.787Z,944.10
2018-12-27T09:50:33.782Z,944.09
2018-12-27T09:51:33.791Z,944.09
2018-12-27T09:52:33.759Z,944.06
2018-12-27T09:53:33.736Z,944.08
2018-12-27T09:54:33.732Z,944.04
2018-12-27T09:55:33.716Z,944.03
2018-12-27T09:56:33.723Z,944.03
2018-12-27T09:57:33.694Z,943.99
2018-12-27T09:58:33.693Z,943.98
2018-12-27T09:59:33.669Z,943.96
2018-12-27T10:00:33.659Z,943.93
2018-12-27T10:01:33.677Z,943.88
2018-12-27T10:02:33.635Z,943.90
2018-12-27T10:03:33.637Z,943.88
2018-12-27T10:04:33.616Z,943.86
2018-12-27T10:05:34.267Z,943.82
2018-12-27T10:06:34.421Z,943.80
2018-12-27T10:07:33.581Z,943.78
2018-12-27T10:08:33.578Z,943.78
2018-12-27T10:09:33.584Z,943.75
2018-12-27T10:10:33.703Z,943.76
2018-12-27T10:11:33.706Z,943.70
2018-12-27T10:12:33.547Z,943.71
2018-12-27T10:13:33.859Z,943.71
2018-12-27T10:14:33.509Z,943.71
2018-12-27T10:15:33.503Z,943.62
2018-12-27T10:16:33.495Z,943.67
2018-12-27T10:17:33.473Z,943.63
2018-12-27T10:18:33.471Z,943.59
2018-12-27T10:19:33.468Z,943.63
2018-12-27T10:20:33.436Z,943.62
2018-12-27T10:21:33.525Z,943.60
2018-12-27T10:22:33.417Z,943.58
2018-12-27T10:23:33.434Z,943.59
2018-12-27T10:24:33.436Z,943.62
2018-12-27T10:25:33.380Z,943.60
2018-12-27T10:26:33.370Z,943.63
2018-12-27T10:27:33.683Z,943.56
2018-12-27T10:28:33.351Z,943.54
2018-12-27T10:29:33.341Z,943.55
2018-12-27T10:30:33.335Z,943.50
2018-12-27T10:31:33.320Z,943.49
2018-12-27T10:32:33.324Z,943.51
2018-12-27T10:33:33.292Z,943.54
2018-12-27T10:34:33.286Z,943.50
2018-12-27T10:35:33.276Z,943.52
2018-12-27T10:36:33.281Z,943.56
2018-12-27T10:37:33.280Z,943.52
2018-12-27T10:38:33.237Z,943.58
2018-12-27T10:39:33.225Z,943.56
2018-12-27T10:40:33.216Z,943.62
2018-12-27T10:41:33.212Z,943.59
2018-12-27T10:42:33.229Z,943.59
2018-12-27T10:43:33.187Z,943.59
2018-12-27T10:44:33.170Z,943.57
2018-12-27T10:45:33.160Z,943.54
2018-12-27T10:46:33.150Z,943.51
2018-12-27T10:47:33.159Z,943.47
2018-12-27T10:48:33.138Z,943.51
2018-12-27T10:49:33.118Z,943.48
2018-12-27T10:50:33.112Z,943.49
2018-12-27T10:51:33.098Z,943.50
2018-12-27T10:52:33.105Z,943.46
2018-12-27T10:53:33.073Z,943.41
2018-12-27T10:54:33.062Z,943.46
2018-12-27T10:55:33.063Z,943.41
2018-12-27T10:56:33.038Z,943.39
2018-12-27T10:57:34.852Z,943.36
2018-12-27T10:58:33.017Z,943.30
2018-12-27T10:59:33.007Z,943.32
2018-12-27T11:00:32.998Z,943.27
2018-12-27T11:01:32.986Z,943.28
2018-12-27T11:02:33.004Z,943.27
2018-12-27T11:03:32.964Z,943.22
2018-12-27T11:04:32.956Z,943.24
2018-12-27T11:05:32.941Z,943.22
2018-12-27T11:06:32.934Z,943.23
2018-12-27T11:07:32.957Z,943.21
2018-12-27T11:08:32.945Z,943.15
2018-12-27T11:09:32.905Z,943.17
2018-12-27T11:10:32.888Z,943.11
2018-12-27T11:11:32.877Z,943.09
2018-12-27T11:12:32.874Z,943.11
2018-12-27T11:13:33.017Z,943.09
2018-12-27T11:14:32.856Z,943.09
2018-12-27T11:15:32.848Z,943.08
2018-12-27T11:16:32.823Z,943.11
2018-12-27T11:17:32.816Z,943.03
2018-12-27T11:18:32.820Z,943.04
2018-12-27T11:19:32.821Z,943.04
2018-12-27T11:20:32.780Z,943.03
2018-12-27T11:21:32.776Z,942.95
2018-12-27T11:22:32.769Z,942.97
2018-12-27T11:23:32.865Z,942.94
2018-12-27T11:24:32.743Z,942.91
2018-12-27T11:25:32.804Z,942.90
2018-12-27T11:26:32.715Z,942.90
2018-12-27T11:27:32.705Z,942.88
2018-12-27T11:28:32.737Z,942.91
2018-12-27T11:29:32.685Z,942.91
2018-12-27T11:30:32.685Z,942.92
2018-12-27T11:31:32.668Z,942.90
2018-12-27T11:32:32.651Z,942.86
2018-12-27T11:33:32.657Z,942.84
2018-12-27T11:34:32.646Z,942.87
2018-12-27T11:35:32.621Z,942.85
2018-12-27T11:36:32.621Z,942.84
2018-12-27T11:37:32.597Z,942.75
2018-12-27T11:38:32.603Z,942.77
2018-12-27T11:39:32.671Z,942.73
2018-12-27T11:40:32.567Z,942.70
2018-12-27T11:41:32.563Z,942.73
2018-12-27T11:42:32.554Z,942.66
2018-12-27T11:43:32.564Z,942.68
2018-12-27T11:44:32.522Z,942.69
2018-12-27T11:45:32.517Z,942.66
2018-12-27T11:46:32.509Z,942.61
2018-12-27T11:47:32.503Z,942.64
2018-12-27T11:48:32.501Z,942.63
2018-12-27T11:49:32.468Z,942.59
2018-12-27T11:50:32.463Z,942.51
2018-12-27T11:51:32.447Z,942.48
2018-12-27T11:52:32.441Z,942.48
2018-12-27T11:53:32.477Z,942.46
2018-12-27T11:54:32.414Z,942.45
2018-12-27T11:55:32.408Z,942.46
2018-12-27T11:56:32.390Z,942.45
2018-12-27T11:57:32.387Z,942.43
2018-12-27T11:58:32.379Z,942.48
2018-12-27T11:59:32.378Z,942.44
2018-12-27T12:00:32.355Z,942.40
2018-12-27T12:01:32.412Z,942.41
2018-12-27T12:02:32.333Z,942.36
2018-12-27T12:03:32.313Z,942.34
2018-12-27T12:04:32.373Z,942.34
2018-12-27T12:05:32.297Z,942.33
2018-12-27T12:06:32.285Z,942.30
2018-12-27T12:07:32.270Z,942.33
2018-12-27T12:08:32.267Z,942.32
2018-12-27T12:09:32.267Z,942.30
2018-12-27T12:10:32.246Z,942.36
2018-12-27T12:11:32.241Z,942.33
2018-12-27T12:12:32.218Z,942.31
2018-12-27T12:13:32.213Z,942.31
2018-12-27T12:14:32.210Z,942.29
2018-12-27T12:15:32.203Z,942.27
2018-12-27T12:16:32.186Z,942.29
2018-12-27T12:17:32.171Z,942.28
2018-12-27T12:18:32.151Z,942.26
2018-12-27T12:19:32.166Z,942.29
2018-12-27T12:20:32.135Z,942.26
2018-12-27T12:21:32.129Z,942.24
2018-12-27T12:22:32.126Z,942.19
2018-12-27T12:23:32.097Z,942.24
2018-12-27T12:24:32.114Z,942.20
2018-12-27T12:25:32.075Z,942.20
2018-12-27T12:26:32.080Z,942.18
2018-12-27T12:27:32.055Z,942.17
2018-12-27T12:28:32.057Z,942.18